sensor_id;sensor_type;location;lat;lon;timestamp;pressure;altitude;pressure_sealevel;temperature;humidity
50444;BME280;36370;52.216;21.142;2022-08-01T00:00:48;100192.38;;;15.92;100.00
50444;BME280;36370;52.216;21.142;2022-08-01T00:04:54;100200.03;;;15.85;100.00
50444;BME280;36370;52.216;21.142;2022-08-01T00:08:57;100193.06;;;15.94;100.00
50444;BME280;36370;52.216;21.142;2022-08-01T00:12:59;100182.00;;;16.10;100.00
50444;BME280;36370;52.216;21.142;2022-08-01T00:17:02;100171.41;;;16.10;100.00
50444;BME280;36370;52.216;21.142;2022-08-01T00:21:08;100164.94;;;16.03;100.00
50444;BME280;36370;52.216;21.142;2022-08-01T00:25:10;100155.09;;;16.14;100.00
50444;BME280;36370;52.216;21.142;2022-08-01T00:29:12;100164.00;;;16.13;100.00
50444;BME280;36370;52.216;21.142;2022-08-01T00:33:35;100143.75;;;16.12;100.00
50444;BME280;36370;52.216;21.142;2022-08-01T00:37:37;100144.91;;;16.10;100.00
50444;BME280;36370;52.216;21.142;2022-08-01T00:41:39;100143.63;;;16.04;100.00
50444;BME280;36370;52.216;21.142;2022-08-01T00:45:42;100144.31;;;16.06;100.00
50444;BME280;36370;52.216;21.142;2022-08-01T00:49:44;100151.03;;;16.10;100.00
50444;BME280;36370;52.216;21.142;2022-08-01T00:53:47;100160.47;;;15.93;100.00
50444;BME280;36370;52.216;21.142;2022-08-01T00:57:54;100158.06;;;15.90;100.00
50444;BME280;36370;52.216;21.142;2022-08-01T01:02:06;100172.94;;;15.82;100.00
50444;BME280;36370;52.216;21.142;2022-08-01T01:06:38;100162.41;;;15.91;100.00
50444;BME280;36370;52.216;21.142;2022-08-01T01:10:53;100161.78;;;15.78;100.00
50444;BME280;36370;52.216;21.142;2022-08-01T01:19:30;100166.00;;;15.81;100.00
50444;BME280;36370;52.216;21.142;2022-08-01T01:28:40;100153.94;;;15.76;100.00
50444;BME280;36370;52.216;21.142;2022-08-01T01:32:48;100141.88;;;15.84;100.00
50444;BME280;36370;52.216;21.142;2022-08-01T01:36:54;100143.28;;;15.88;100.00
50444;BME280;36370;52.216;21.142;2022-08-01T01:40:59;100149.69;;;15.85;100.00
50444;BME280;36370;52.216;21.142;2022-08-01T01:45:05;100151.28;;;15.76;100.00
50444;BME280;36370;52.216;21.142;2022-08-01T01:49:08;100170.03;;;15.54;100.00
50444;BME280;36370;52.216;21.142;2022-08-01T01:53:14;100172.56;;;15.34;100.00
50444;BME280;36370;52.216;21.142;2022-08-01T01:57:18;100178.16;;;15.41;100.00
50444;BME280;36370;52.216;21.142;2022-08-01T02:01:23;100168.72;;;15.48;100.00
50444;BME280;36370;52.216;21.142;2022-08-01T02:05:48;100169.00;;;15.45;100.00
50444;BME280;36370;52.216;21.142;2022-08-01T02:09:52;100170.81;;;15.44;100.00
50444;BME280;36370;52.216;21.142;2022-08-01T02:14:01;100154.06;;;15.44;100.00
50444;BME280;36370;52.216;21.142;2022-08-01T02:18:05;100152.84;;;15.48;100.00
50444;BME280;36370;52.216;21.142;2022-08-01T02:22:11;100144.91;;;15.48;100.00
50444;BME280;36370;52.216;21.142;2022-08-01T02:26:17;100160.41;;;15.32;100.00
50444;BME280;36370;52.216;21.142;2022-08-01T02:30:21;100169.47;;;15.29;100.00
50444;BME280;36370;52.216;21.142;2022-08-01T02:34:28;100171.78;;;15.22;100.00
50444;BME280;36370;52.216;21.142;2022-08-01T02:38:36;100165.84;;;15.30;100.00
50444;BME280;36370;52.216;21.142;2022-08-01T02:42:44;100157.19;;;15.28;100.00
50444;BME280;36370;52.216;21.142;2022-08-01T02:46:51;100162.44;;;15.18;100.00
50444;BME280;36370;52.216;21.142;2022-08-01T02:50:58;100170.34;;;14.97;100.00
50444;BME280;36370;52.216;21.142;2022-08-01T02:55:07;100174.00;;;14.85;100.00
50444;BME280;36370;52.216;21.142;2022-08-01T02:59:13;100186.34;;;14.75;100.00
50444;BME280;36370;52.216;21.142;2022-08-01T03:03:23;100181.16;;;14.73;100.00
50444;BME280;36370;52.216;21.142;2022-08-01T03:07:28;100180.94;;;14.65;100.00
50444;BME280;36370;52.216;21.142;2022-08-01T03:11:37;100172.19;;;14.64;100.00
50444;BME280;36370;52.216;21.142;2022-08-01T03:15:43;100177.84;;;14.48;100.00
50444;BME280;36370;52.216;21.142;2022-08-01T03:19:46;100179.47;;;14.28;100.00
50444;BME280;36370;52.216;21.142;2022-08-01T03:23:53;100173.22;;;14.18;100.00
50444;BME280;36370;52.216;21.142;2022-08-01T03:28:02;100186.81;;;14.25;100.00
50444;BME280;36370;52.216;21.142;2022-08-01T03:32:06;100179.19;;;14.43;100.00
50444;BME280;36370;52.216;21.142;2022-08-01T03:36:10;100168.97;;;14.38;100.00
50444;BME280;36370;52.216;21.142;2022-08-01T03:40:24;100186.88;;;14.46;100.00
50444;BME280;36370;52.216;21.142;2022-08-01T03:44:31;100193.47;;;14.51;100.00
50444;BME280;36370;52.216;21.142;2022-08-01T03:48:37;100213.31;;;14.34;100.00
50444;BME280;36370;52.216;21.142;2022-08-01T03:52:43;100209.06;;;14.66;100.00
50444;BME280;36370;52.216;21.142;2022-08-01T03:56:48;100213.25;;;14.57;100.00
50444;BME280;36370;52.216;21.142;2022-08-01T04:00:52;100216.38;;;14.74;100.00
50444;BME280;36370;52.216;21.142;2022-08-01T04:04:55;100211.22;;;14.72;100.00
50444;BME280;36370;52.216;21.142;2022-08-01T04:08:57;100227.16;;;14.82;100.00
50444;BME280;36370;52.216;21.142;2022-08-01T04:12:59;100215.56;;;14.94;100.00
50444;BME280;36370;52.216;21.142;2022-08-01T04:17:02;100230.16;;;14.88;100.00
50444;BME280;36370;52.216;21.142;2022-08-01T04:21:04;100234.34;;;14.91;100.00
50444;BME280;36370;52.216;21.142;2022-08-01T04:25:17;100230.69;;;15.03;100.00
50444;BME280;36370;52.216;21.142;2022-08-01T04:29:22;100233.00;;;14.97;100.00
50444;BME280;36370;52.216;21.142;2022-08-01T04:33:25;100228.31;;;15.00;100.00
50444;BME280;36370;52.216;21.142;2022-08-01T04:37:30;100232.66;;;15.22;100.00
50444;BME280;36370;52.216;21.142;2022-08-01T04:41:33;100234.00;;;15.17;100.00
50444;BME280;36370;52.216;21.142;2022-08-01T04:45:38;100219.63;;;15.31;100.00
50444;BME280;36370;52.216;21.142;2022-08-01T04:49:42;100215.72;;;15.35;100.00
50444;BME280;36370;52.216;21.142;2022-08-01T04:53:50;100197.41;;;15.43;100.00
50444;BME280;36370;52.216;21.142;2022-08-01T04:57:53;100200.38;;;15.50;100.00
50444;BME280;36370;52.216;21.142;2022-08-01T05:01:55;100214.44;;;15.50;100.00
50444;BME280;36370;52.216;21.142;2022-08-01T05:05:57;100207.81;;;15.77;100.00
50444;BME280;36370;52.216;21.142;2022-08-01T05:09:59;100198.16;;;15.76;100.00
50444;BME280;36370;52.216;21.142;2022-08-01T05:14:06;100190.03;;;15.98;100.00
50444;BME280;36370;52.216;21.142;2022-08-01T05:18:08;100204.81;;;15.91;100.00
50444;BME280;36370;52.216;21.142;2022-08-01T05:22:11;100206.03;;;15.87;100.00
50444;BME280;36370;52.216;21.142;2022-08-01T05:26:14;100211.66;;;15.73;100.00
50444;BME280;36370;52.216;21.142;2022-08-01T05:30:17;100217.88;;;15.62;100.00
50444;BME280;36370;52.216;21.142;2022-08-01T05:34:19;100235.19;;;15.66;100.00
50444;BME280;36370;52.216;21.142;2022-08-01T05:38:22;100227.53;;;15.73;100.00
50444;BME280;36370;52.216;21.142;2022-08-01T05:42:24;100219.56;;;15.63;100.00
50444;BME280;36370;52.216;21.142;2022-08-01T05:46:27;100226.34;;;15.56;100.00
50444;BME280;36370;52.216;21.142;2022-08-01T05:50:29;100230.72;;;15.67;100.00
50444;BME280;36370;52.216;21.142;2022-08-01T05:54:32;100228.44;;;15.83;100.00
50444;BME280;36370;52.216;21.142;2022-08-01T05:58:34;100225.34;;;15.99;100.00
50444;BME280;36370;52.216;21.142;2022-08-01T06:02:40;100217.34;;;16.30;100.00
50444;BME280;36370;52.216;21.142;2022-08-01T06:06:44;100202.59;;;16.57;100.00
50444;BME280;36370;52.216;21.142;2022-08-01T06:10:46;100199.81;;;16.78;100.00
50444;BME280;36370;52.216;21.142;2022-08-01T06:14:48;100185.06;;;16.95;100.00
50444;BME280;36370;52.216;21.142;2022-08-01T06:18:51;100185.75;;;17.26;100.00
50444;BME280;36370;52.216;21.142;2022-08-01T06:22:57;100189.78;;;17.20;100.00
50444;BME280;36370;52.216;21.142;2022-08-01T06:27:02;100191.16;;;17.34;100.00
50444;BME280;36370;52.216;21.142;2022-08-01T06:31:22;100199.91;;;17.64;100.00
50444;BME280;36370;52.216;21.142;2022-08-01T06:35:26;100201.09;;;17.80;100.00
50444;BME280;36370;52.216;21.142;2022-08-01T06:39:29;100216.81;;;18.10;100.00
50444;BME280;36370;52.216;21.142;2022-08-01T06:43:32;100220.66;;;18.26;100.00
50444;BME280;36370;52.216;21.142;2022-08-01T06:47:36;100254.06;;;18.38;100.00
50444;BME280;36370;52.216;21.142;2022-08-01T06:51:38;100231.59;;;18.51;100.00
50444;BME280;36370;52.216;21.142;2022-08-01T06:55:40;100273.63;;;18.65;100.00
50444;BME280;36370;52.216;21.142;2022-08-01T06:59:43;100270.22;;;18.73;100.00
50444;BME280;36370;52.216;21.142;2022-08-01T07:03:55;100256.22;;;19.16;100.00
50444;BME280;36370;52.216;21.142;2022-08-01T07:07:57;100238.78;;;19.22;100.00
50444;BME280;36370;52.216;21.142;2022-08-01T07:12:00;100297.44;;;19.12;100.00
50444;BME280;36370;52.216;21.142;2022-08-01T07:16:02;100303.22;;;19.26;100.00
50444;BME280;36370;52.216;21.142;2022-08-01T07:20:06;100306.53;;;19.64;100.00
50444;BME280;36370;52.216;21.142;2022-08-01T07:24:13;100304.19;;;19.79;100.00
50444;BME280;36370;52.216;21.142;2022-08-01T07:28:16;100298.06;;;19.86;100.00
50444;BME280;36370;52.216;21.142;2022-08-01T07:32:18;100302.94;;;19.73;100.00
50444;BME280;36370;52.216;21.142;2022-08-01T07:36:20;100309.34;;;19.80;100.00
50444;BME280;36370;52.216;21.142;2022-08-01T07:40:23;100325.19;;;20.08;100.00
50444;BME280;36370;52.216;21.142;2022-08-01T07:44:25;100331.31;;;20.26;100.00
50444;BME280;36370;52.216;21.142;2022-08-01T07:48:30;100308.88;;;20.11;100.00
50444;BME280;36370;52.216;21.142;2022-08-01T07:52:33;100317.28;;;20.24;100.00
50444;BME280;36370;52.216;21.142;2022-08-01T07:56:35;100314.28;;;20.62;100.00
50444;BME280;36370;52.216;21.142;2022-08-01T08:00:37;100317.88;;;20.44;100.00
50444;BME280;36370;52.216;21.142;2022-08-01T08:04:40;100319.19;;;20.75;100.00
50444;BME280;36370;52.216;21.142;2022-08-01T08:08:49;100319.34;;;20.73;100.00
50444;BME280;36370;52.216;21.142;2022-08-01T08:12:51;100323.38;;;20.77;100.00
50444;BME280;36370;52.216;21.142;2022-08-01T08:16:54;100330.41;;;20.87;100.00
50444;BME280;36370;52.216;21.142;2022-08-01T08:20:58;100330.25;;;20.88;100.00
50444;BME280;36370;52.216;21.142;2022-08-01T08:25:08;100334.78;;;21.04;100.00
50444;BME280;36370;52.216;21.142;2022-08-01T08:29:12;100331.03;;;20.72;100.00
50444;BME280;36370;52.216;21.142;2022-08-01T08:33:14;100330.91;;;20.90;100.00
50444;BME280;36370;52.216;21.142;2022-08-01T08:37:17;100341.75;;;20.89;100.00
50444;BME280;36370;52.216;21.142;2022-08-01T08:41:22;100340.78;;;20.98;100.00
50444;BME280;36370;52.216;21.142;2022-08-01T08:45:24;100355.69;;;21.25;100.00
50444;BME280;36370;52.216;21.142;2022-08-01T08:49:47;100350.22;;;21.43;100.00
50444;BME280;36370;52.216;21.142;2022-08-01T08:53:51;100350.59;;;21.65;100.00
50444;BME280;36370;52.216;21.142;2022-08-01T08:57:56;100356.94;;;21.64;100.00
50444;BME280;36370;52.216;21.142;2022-08-01T09:01:59;100351.41;;;21.82;100.00
50444;BME280;36370;52.216;21.142;2022-08-01T09:06:03;100361.09;;;21.75;100.00
50444;BME280;36370;52.216;21.142;2022-08-01T09:10:06;100367.28;;;21.83;100.00
50444;BME280;36370;52.216;21.142;2022-08-01T09:14:16;100361.56;;;22.11;100.00
50444;BME280;36370;52.216;21.142;2022-08-01T09:22:33;100369.09;;;22.16;100.00
50444;BME280;36370;52.216;21.142;2022-08-01T09:26:36;100364.84;;;22.54;100.00
50444;BME280;36370;52.216;21.142;2022-08-01T09:30:38;100378.44;;;22.36;100.00
50444;BME280;36370;52.216;21.142;2022-08-01T09:34:41;100385.28;;;22.31;100.00
50444;BME280;36370;52.216;21.142;2022-08-01T09:38:44;100379.75;;;22.49;100.00
50444;BME280;36370;52.216;21.142;2022-08-01T09:43:10;100378.91;;;22.48;100.00
50444;BME280;36370;52.216;21.142;2022-08-01T09:47:16;100377.66;;;22.67;100.00
50444;BME280;36370;52.216;21.142;2022-08-01T09:51:42;100379.22;;;22.53;100.00
50444;BME280;36370;52.216;21.142;2022-08-01T09:56:12;100376.75;;;22.83;100.00
50444;BME280;36370;52.216;21.142;2022-08-01T10:00:17;100376.22;;;22.88;100.00
50444;BME280;36370;52.216;21.142;2022-08-01T10:04:48;100368.31;;;22.94;100.00
50444;BME280;36370;52.216;21.142;2022-08-01T10:08:51;100373.66;;;22.63;100.00
50444;BME280;36370;52.216;21.142;2022-08-01T10:12:55;100376.09;;;22.81;100.00
50444;BME280;36370;52.216;21.142;2022-08-01T10:17:00;100370.94;;;22.71;100.00
50444;BME280;36370;52.216;21.142;2022-08-01T10:21:06;100372.81;;;23.10;100.00
50444;BME280;36370;52.216;21.142;2022-08-01T10:25:12;100381.03;;;23.09;100.00
50444;BME280;36370;52.216;21.142;2022-08-01T10:29:54;100372.63;;;23.04;100.00
50444;BME280;36370;52.216;21.142;2022-08-01T10:34:09;100372.16;;;23.32;100.00
50444;BME280;36370;52.216;21.142;2022-08-01T10:38:14;100371.25;;;23.16;100.00
50444;BME280;36370;52.216;21.142;2022-08-01T10:42:18;100373.13;;;23.07;100.00
50444;BME280;36370;52.216;21.142;2022-08-01T10:46:20;100370.00;;;23.73;100.00
50444;BME280;36370;52.216;21.142;2022-08-01T10:50:44;100369.72;;;23.68;100.00
50444;BME280;36370;52.216;21.142;2022-08-01T10:55:02;100366.00;;;23.92;100.00
50444;BME280;36370;52.216;21.142;2022-08-01T10:59:04;100360.56;;;24.00;100.00
50444;BME280;36370;52.216;21.142;2022-08-01T11:03:12;100362.53;;;24.07;100.00
50444;BME280;36370;52.216;21.142;2022-08-01T11:07:22;100363.88;;;23.88;100.00
50444;BME280;36370;52.216;21.142;2022-08-01T11:11:27;100359.34;;;23.88;100.00
50444;BME280;36370;52.216;21.142;2022-08-01T11:15:39;100357.22;;;23.75;100.00
50444;BME280;36370;52.216;21.142;2022-08-01T11:20:11;100365.81;;;23.71;100.00
50444;BME280;36370;52.216;21.142;2022-08-01T11:24:14;100359.28;;;23.73;100.00
50444;BME280;36370;52.216;21.142;2022-08-01T11:28:19;100360.53;;;23.62;100.00
50444;BME280;36370;52.216;21.142;2022-08-01T11:32:31;100352.31;;;23.64;100.00
50444;BME280;36370;52.216;21.142;2022-08-01T11:37:22;100363.28;;;24.30;100.00
50444;BME280;36370;52.216;21.142;2022-08-01T11:41:33;100367.59;;;24.01;100.00
50444;BME280;36370;52.216;21.142;2022-08-01T11:45:54;100360.06;;;24.65;100.00
50444;BME280;36370;52.216;21.142;2022-08-01T11:50:00;100357.53;;;24.33;100.00
50444;BME280;36370;52.216;21.142;2022-08-01T11:54:03;100365.66;;;24.25;100.00
50444;BME280;36370;52.216;21.142;2022-08-01T11:58:07;100360.03;;;24.50;100.00
50444;BME280;36370;52.216;21.142;2022-08-01T12:02:30;100367.19;;;24.72;100.00
50444;BME280;36370;52.216;21.142;2022-08-01T12:06:34;100361.31;;;24.54;100.00
50444;BME280;36370;52.216;21.142;2022-08-01T12:10:36;100356.69;;;24.33;100.00
50444;BME280;36370;52.216;21.142;2022-08-01T12:14:55;100356.06;;;24.61;100.00
50444;BME280;36370;52.216;21.142;2022-08-01T12:18:58;100356.06;;;24.61;100.00
50444;BME280;36370;52.216;21.142;2022-08-01T12:23:08;100358.75;;;24.31;100.00
50444;BME280;36370;52.216;21.142;2022-08-01T12:27:11;100352.25;;;24.40;100.00
50444;BME280;36370;52.216;21.142;2022-08-01T12:31:32;100360.28;;;24.25;100.00
50444;BME280;36370;52.216;21.142;2022-08-01T12:35:37;100351.50;;;24.46;100.00
50444;BME280;36370;52.216;21.142;2022-08-01T12:39:40;100356.47;;;24.94;100.00
50444;BME280;36370;52.216;21.142;2022-08-01T12:43:42;100344.81;;;25.23;100.00
50444;BME280;36370;52.216;21.142;2022-08-01T12:47:45;100352.41;;;25.20;100.00
50444;BME280;36370;52.216;21.142;2022-08-01T12:51:48;100360.78;;;24.73;100.00
50444;BME280;36370;52.216;21.142;2022-08-01T12:55:58;100351.25;;;24.71;100.00
50444;BME280;36370;52.216;21.142;2022-08-01T13:04:09;100341.06;;;25.24;100.00
50444;BME280;36370;52.216;21.142;2022-08-01T13:08:19;100339.13;;;25.33;100.00
50444;BME280;36370;52.216;21.142;2022-08-01T13:12:21;100337.00;;;25.50;100.00
50444;BME280;36370;52.216;21.142;2022-08-01T13:16:25;100342.34;;;25.43;100.00
50444;BME280;36370;52.216;21.142;2022-08-01T13:20:48;100331.06;;;25.55;100.00
50444;BME280;36370;52.216;21.142;2022-08-01T13:25:09;100329.88;;;25.21;100.00
50444;BME280;36370;52.216;21.142;2022-08-01T13:29:20;100341.00;;;25.54;100.00
50444;BME280;36370;52.216;21.142;2022-08-01T13:33:24;100344.84;;;25.45;100.00
50444;BME280;36370;52.216;21.142;2022-08-01T13:37:26;100342.25;;;25.87;100.00
50444;BME280;36370;52.216;21.142;2022-08-01T13:41:28;100335.81;;;25.81;100.00
50444;BME280;36370;52.216;21.142;2022-08-01T13:45:35;100328.34;;;26.05;100.00
50444;BME280;36370;52.216;21.142;2022-08-01T13:49:37;100338.69;;;26.01;100.00
50444;BME280;36370;52.216;21.142;2022-08-01T13:53:41;100342.72;;;25.90;100.00
50444;BME280;36370;52.216;21.142;2022-08-01T13:57:43;100334.44;;;26.20;100.00
50444;BME280;36370;52.216;21.142;2022-08-01T14:01:46;100336.78;;;26.30;100.00
50444;BME280;36370;52.216;21.142;2022-08-01T14:05:48;100351.91;;;26.31;100.00
50444;BME280;36370;52.216;21.142;2022-08-01T14:09:59;100347.69;;;26.57;100.00
50444;BME280;36370;52.216;21.142;2022-08-01T14:14:20;100343.81;;;26.24;100.00
50444;BME280;36370;52.216;21.142;2022-08-01T14:18:23;100355.78;;;25.93;100.00
50444;BME280;36370;52.216;21.142;2022-08-01T14:22:26;100352.81;;;25.38;100.00
50444;BME280;36370;52.216;21.142;2022-08-01T14:26:28;100354.00;;;25.79;100.00
50444;BME280;36370;52.216;21.142;2022-08-01T14:30:30;100356.84;;;25.71;100.00
50444;BME280;36370;52.216;21.142;2022-08-01T14:34:33;100366.41;;;25.73;100.00
50444;BME280;36370;52.216;21.142;2022-08-01T14:38:35;100363.84;;;26.15;100.00
50444;BME280;36370;52.216;21.142;2022-08-01T14:42:38;100366.06;;;26.11;100.00
50444;BME280;36370;52.216;21.142;2022-08-01T14:46:40;100362.25;;;25.99;100.00
50444;BME280;36370;52.216;21.142;2022-08-01T14:50:59;100364.19;;;25.84;100.00
50444;BME280;36370;52.216;21.142;2022-08-01T14:55:07;100366.88;;;25.84;100.00
50444;BME280;36370;52.216;21.142;2022-08-01T14:59:09;100364.47;;;25.67;100.00
50444;BME280;36370;52.216;21.142;2022-08-01T15:03:22;100368.09;;;25.53;100.00
50444;BME280;36370;52.216;21.142;2022-08-01T15:07:25;100366.75;;;25.42;100.00
50444;BME280;36370;52.216;21.142;2022-08-01T15:11:27;100375.00;;;25.25;100.00
50444;BME280;36370;52.216;21.142;2022-08-01T15:15:35;100381.84;;;25.43;100.00
50444;BME280;36370;52.216;21.142;2022-08-01T15:19:38;100373.53;;;25.59;100.00
50444;BME280;36370;52.216;21.142;2022-08-01T15:23:43;100370.47;;;25.91;100.00
50444;BME280;36370;52.216;21.142;2022-08-01T15:27:45;100369.84;;;25.89;100.00
50444;BME280;36370;52.216;21.142;2022-08-01T15:31:47;100381.59;;;25.59;100.00
50444;BME280;36370;52.216;21.142;2022-08-01T15:35:49;100380.91;;;25.14;100.00
50444;BME280;36370;52.216;21.142;2022-08-01T15:39:54;100370.41;;;24.83;100.00
50444;BME280;36370;52.216;21.142;2022-08-01T15:43:57;100379.78;;;24.57;100.00
50444;BME280;36370;52.216;21.142;2022-08-01T15:47:59;100380.13;;;24.39;100.00
50444;BME280;36370;52.216;21.142;2022-08-01T15:52:06;100375.66;;;24.31;100.00
50444;BME280;36370;52.216;21.142;2022-08-01T15:56:23;100373.44;;;24.50;100.00
50444;BME280;36370;52.216;21.142;2022-08-01T16:00:25;100376.34;;;24.78;100.00
50444;BME280;36370;52.216;21.142;2022-08-01T16:04:39;100384.59;;;25.13;100.00
50444;BME280;36370;52.216;21.142;2022-08-01T16:08:41;100376.34;;;24.78;100.00
50444;BME280;36370;52.216;21.142;2022-08-01T16:12:44;100382.00;;;24.68;100.00
50444;BME280;36370;52.216;21.142;2022-08-01T16:16:47;100378.41;;;24.61;100.00
50444;BME280;36370;52.216;21.142;2022-08-01T16:20:49;100391.88;;;24.53;100.00
50444;BME280;36370;52.216;21.142;2022-08-01T16:24:51;100389.09;;;24.31;100.00
50444;BME280;36370;52.216;21.142;2022-08-01T16:28:58;100392.31;;;24.27;100.00
50444;BME280;36370;52.216;21.142;2022-08-01T16:33:00;100387.50;;;24.22;100.00
50444;BME280;36370;52.216;21.142;2022-08-01T16:37:22;100395.00;;;24.12;100.00
50444;BME280;36370;52.216;21.142;2022-08-01T16:41:25;100392.09;;;23.75;100.00
50444;BME280;36370;52.216;21.142;2022-08-01T16:45:27;100394.59;;;23.77;100.00
50444;BME280;36370;52.216;21.142;2022-08-01T16:49:29;100401.06;;;23.67;100.00
50444;BME280;36370;52.216;21.142;2022-08-01T16:53:33;100392.44;;;23.57;100.00
50444;BME280;36370;52.216;21.142;2022-08-01T16:57:35;100395.47;;;23.54;100.00
50444;BME280;36370;52.216;21.142;2022-08-01T17:01:39;100397.38;;;23.45;100.00
50444;BME280;36370;52.216;21.142;2022-08-01T17:06:01;100401.03;;;23.44;100.00
50444;BME280;36370;52.216;21.142;2022-08-01T17:10:05;100399.06;;;23.38;100.00
50444;BME280;36370;52.216;21.142;2022-08-01T17:14:08;100401.63;;;23.32;100.00
50444;BME280;36370;52.216;21.142;2022-08-01T17:18:10;100407.41;;;23.20;100.00
50444;BME280;36370;52.216;21.142;2022-08-01T17:22:12;100409.91;;;23.22;100.00
50444;BME280;36370;52.216;21.142;2022-08-01T17:26:14;100411.28;;;23.18;100.00
50444;BME280;36370;52.216;21.142;2022-08-01T17:30:17;100417.69;;;23.00;100.00
50444;BME280;36370;52.216;21.142;2022-08-01T17:34:21;100414.03;;;23.01;100.00
50444;BME280;36370;52.216;21.142;2022-08-01T17:38:23;100418.56;;;22.92;100.00
50444;BME280;36370;52.216;21.142;2022-08-01T17:42:25;100415.78;;;22.77;100.00
50444;BME280;36370;52.216;21.142;2022-08-01T17:46:30;100414.13;;;22.68;100.00
50444;BME280;36370;52.216;21.142;2022-08-01T17:50:33;100412.13;;;22.62;100.00
50444;BME280;36370;52.216;21.142;2022-08-01T17:54:35;100417.03;;;22.50;100.00
50444;BME280;36370;52.216;21.142;2022-08-01T17:58:37;100411.91;;;22.40;100.00
50444;BME280;36370;52.216;21.142;2022-08-01T18:02:52;100386.81;;;22.33;100.00
50444;BME280;36370;52.216;21.142;2022-08-01T18:06:56;100404.53;;;22.18;100.00
50444;BME280;36370;52.216;21.142;2022-08-01T18:10:59;100397.00;;;22.13;100.00
50444;BME280;36370;52.216;21.142;2022-08-01T18:15:02;100395.84;;;21.99;100.00
50444;BME280;36370;52.216;21.142;2022-08-01T18:19:07;100381.50;;;21.84;100.00
50444;BME280;36370;52.216;21.142;2022-08-01T18:23:09;100402.88;;;21.76;100.00
50444;BME280;36370;52.216;21.142;2022-08-01T18:27:12;100404.38;;;21.62;100.00
50444;BME280;36370;52.216;21.142;2022-08-01T18:31:14;100397.81;;;21.40;100.00
50444;BME280;36370;52.216;21.142;2022-08-01T18:35:22;100383.94;;;21.36;100.00
50444;BME280;36370;52.216;21.142;2022-08-01T18:39:45;100372.22;;;21.21;100.00
50444;BME280;36370;52.216;21.142;2022-08-01T18:43:47;100374.22;;;21.10;100.00
50444;BME280;36370;52.216;21.142;2022-08-01T18:47:49;100393.22;;;20.99;100.00
50444;BME280;36370;52.216;21.142;2022-08-01T18:51:51;100370.25;;;20.72;100.00
50444;BME280;36370;52.216;21.142;2022-08-01T18:55:55;100366.75;;;20.79;100.00
50444;BME280;36370;52.216;21.142;2022-08-01T18:59:57;100385.00;;;20.92;100.00
50444;BME280;36370;52.216;21.142;2022-08-01T19:04:00;100376.00;;;20.93;100.00
50444;BME280;36370;52.216;21.142;2022-08-01T19:08:02;100379.00;;;20.90;100.00
50444;BME280;36370;52.216;21.142;2022-08-01T19:12:08;100377.09;;;20.74;100.00
50444;BME280;36370;52.216;21.142;2022-08-01T19:16:10;100384.06;;;20.67;100.00
50444;BME280;36370;52.216;21.142;2022-08-01T19:20:12;100373.72;;;20.72;100.00
50444;BME280;36370;52.216;21.142;2022-08-01T19:24:14;100378.88;;;20.66;100.00
50444;BME280;36370;52.216;21.142;2022-08-01T19:28:25;100363.06;;;20.72;100.00
50444;BME280;36370;52.216;21.142;2022-08-01T19:32:29;100380.59;;;20.75;100.00
50444;BME280;36370;52.216;21.142;2022-08-01T19:36:36;100384.25;;;20.74;100.00
50444;BME280;36370;52.216;21.142;2022-08-01T19:40:39;100399.25;;;20.67;100.00
50444;BME280;36370;52.216;21.142;2022-08-01T19:44:42;100390.69;;;20.63;100.00
50444;BME280;36370;52.216;21.142;2022-08-01T19:48:46;100381.84;;;20.62;100.00
50444;BME280;36370;52.216;21.142;2022-08-01T19:52:55;100362.59;;;20.51;100.00
50444;BME280;36370;52.216;21.142;2022-08-01T19:57:01;100347.44;;;20.51;100.00
50444;BME280;36370;52.216;21.142;2022-08-01T20:01:06;100342.34;;;20.40;100.00
50444;BME280;36370;52.216;21.142;2022-08-01T20:05:09;100344.84;;;20.33;100.00
50444;BME280;36370;52.216;21.142;2022-08-01T20:09:12;100353.00;;;20.32;100.00
50444;BME280;36370;52.216;21.142;2022-08-01T20:13:15;100348.00;;;20.37;100.00
50444;BME280;36370;52.216;21.142;2022-08-01T20:17:19;100353.16;;;20.30;100.00
50444;BME280;36370;52.216;21.142;2022-08-01T20:21:24;100362.22;;;20.37;100.00
50444;BME280;36370;52.216;21.142;2022-08-01T20:25:29;100362.22;;;20.37;100.00
50444;BME280;36370;52.216;21.142;2022-08-01T20:29:43;100369.34;;;20.37;100.00
50444;BME280;36370;52.216;21.142;2022-08-01T20:33:47;100364.69;;;20.31;100.00
50444;BME280;36370;52.216;21.142;2022-08-01T20:37:52;100362.53;;;20.34;100.00
50444;BME280;36370;52.216;21.142;2022-08-01T20:42:08;100359.84;;;20.34;100.00
50444;BME280;36370;52.216;21.142;2022-08-01T20:46:10;100354.53;;;20.34;100.00
50444;BME280;36370;52.216;21.142;2022-08-01T20:50:18;100353.91;;;20.14;100.00
50444;BME280;36370;52.216;21.142;2022-08-01T20:54:54;100354.06;;;20.13;100.00
50444;BME280;36370;52.216;21.142;2022-08-01T20:59:04;100352.69;;;20.08;100.00
50444;BME280;36370;52.216;21.142;2022-08-01T21:03:21;100357.88;;;20.10;100.00
50444;BME280;36370;52.216;21.142;2022-08-01T21:07:52;100354.69;;;20.06;100.00
50444;BME280;36370;52.216;21.142;2022-08-01T21:12:02;100356.69;;;20.04;100.00